x

Neah Bay, - 6nm North Of Cape Flattery, Wa (traffic Separation Lighted Buoy) (46087) Wave Buoy

5:50 - Thu 24th Jul 2014 All times are PDT. -7 hours from GMT.

  • Sig Wave height 4.6ft
  • Swell Direction
  • Peak Period 8s
  • Average Period 7s
  • Wind
    7mph, 9mph gusts
  • Sea Temp 52°f
  • Luft Temp 54°f
  • Sea Pressure 1023.6mb
  • Neah Bay, - 6nm North Of Cape Flattery, Wa     (traffic Separation Lighted Buoy)
  • Neah Bay, - 6nm North Of Cape Flattery, Wa     (traffic Separation Lighted Buoy)

More Historic Weather Station data

Upgrade to MSW Pro to gain access to the past 30 days of data for over 8000 Wavebouys and Weather Stations around the globe.

Join Pro

Comparision Forecast

View Surf forecast
   
Do 07/24 5:50 4.5ft 8s 7s 7 9 mph 1023.6mb 52f 54f
5:20  -   -   -  7
mph
1023.6mb 52f 55f
4:50 4.5ft 7s 6s 9 11 mph 1023.7mb 52f 54f
4:20  -   -   -  9 11 mph 1023.9mb 52f 54f
3:50 5ft 8s 6s 9
mph
1023.8mb 52f 55f
3:20  -   -   -  9 11 mph 1023.7mb 52f 55f
2:50 4.5ft 8s 6s 11
mph
1023.6mb 52f 55f
2:20  -   -   -  11 13 mph 1023.5mb 52f 54f
1:50 4.5ft 8s 6s 9 11 mph 1023.4mb 52f 54f
1:20  -   -   -  9 11 mph 1023.1mb 52f 55f
12:50 4ft 8s 5s 9 11 mph 1022.9mb 52f 54f
12:20  -   -   -  9 11 mph 1022.6mb 52f 55f
11:50 4ft 8s 6s 11 13 mph 1022.3mb 52f 54f
11:20  -   -   -  9
mph
1022mb 52f 54f
10:50 4ft 8s 6s 11 13 mph 1021.7mb 52f 54f
10:20  -   -   -  4 7 mph 1021.5mb 52f 54f
9:50 3.5ft 8s 6s 9 11 mph 1021.1mb 52f 54f
9:20  -   -   -  9 11 mph 1020.8mb 52f 54f
8:50 4ft 8s 6s 11 13 mph 1020.4mb 52f 54f
8:20  -   -   -  13 16 mph 1019.9mb 52f 54f
7:50 4ft 8s 7s 9 11 mph 1019.7mb 52f 54f
7:20  -   -   -  9 11 mph 1019.3mb 52f 54f
6:50 4ft 8s 7s 11 13 mph 1019.2mb 52f 54f
6:20  -   -   -  11 13 mph 1018.9mb 52f 54f
5:50 4ft 8s 7s 2 4 mph 1018.8mb 52f 54f
5:20  -   -   -  4
mph
1018.5mb 52f 54f
4:50 3.5ft 8s 7s 7
mph
1018mb 52f 55f
4:20  -   -   -  4 7 mph 1017.9mb 52f 54f
3:50 4ft 7s 6s 7 9 mph 1017.8mb 52f 55f
3:20  -   -   -  9 11 mph 1017.7mb 53f 54f
2:50 4ft 7s 6s 11 13 mph 1017.4mb 53f 54f
2:20  -   -   -  13 18 mph 1017.1mb 53f 55f
1:50 3.5ft 7s 6s 9 11 mph 1016.8mb 53f 55f
1:20  -   -   -  7 9 mph 1016.7mb 53f 55f
12:50 3.5ft 6s 6s 7 9 mph 1016.6mb 54f 55f
12:20  -   -   -  4 7 mph 1016.6mb 53f 55f
Mi 07/23 11:50 3.5ft 6s 6s 4
mph
1016.4mb 53f 55f
11:20  -   -   -  7 9 mph 1016.4mb 53f 56f
10:50 3.5ft 6s 6s 4
mph
1016.4mb 53f 56f
10:20  -   -   -  2 4 mph 1016.5mb 55f 56f
9:50 3.5ft 6s 6s 7
mph
1016.3mb 55f 56f
9:20  -   -   -  7 9 mph 1016.1mb 55f 56f
8:50 3.5ft 6s 6s 2
mph
1015.9mb 53f 58f
7:50 3.5ft 8s 6s 11
mph
1015.7mb 53f 58f
7:20  -   -   -  13
mph
1015.7mb 54f 58f
6:50 3.5ft 6s 6s 9 11 mph 1015.9mb 53f 57f
6:20  -   -   -  13 16 mph 1016.1mb 53f 58f
5:50 3.5ft 9s 6s 7 11 mph 1016.2mb 53f 59f
5:20  -   -   -  13 16 mph 1016.2mb 53f 58f
4:50 3.5ft 8s 6s 11 13 mph 1016.2mb 53f 58f
4:20  -   -   -  13 18 mph 1016.2mb 53f 58f
3:50 3.5ft 9s 6s 2 9 mph 1016.3mb 53f 57f
3:20  -   -   -  4 7 mph 1016.3mb 53f 58f
2:50 3.5ft 9s 6s 2 7 mph 1016.4mb 53f 59f
2:20  -   -   -  4 7 mph 1016mb 53f 58f
1:50 4.5ft 7s 6s 2 7 mph 1015.8mb 53f 58f
1:20  -   -   -  4 7 mph 1015.6mb 53f 56f
12:50 3.5ft 8s 6s 7 9 mph 1015.6mb 53f 56f
12:20  -   -   -  4 7 mph 1015.2mb 53f 57f
11:50 3.5ft 10s 7s 4 7 mph 1015.3mb 53f 57f
11:20  -   -   -  7 11 mph 1015.2mb 53f 54f
10:50 3.5ft 8s 7s 9
mph
1014.9mb 53f 53f
10:20  -   -   -  9 13 mph 1014.9mb 53f 53f
9:50 4ft 8s 7s 9 13 mph 1014.8mb 53f 53f
9:20  -   -   -  9 11 mph 1014.7mb 53f 53f
8:50 4ft 8s 8s 9 11 mph 1014.5mb 54f 53f
8:20  -   -   -  11 13 mph 1014.6mb 54f 54f
7:50 4ft 9s 8s 9 11 mph 1014.5mb 54f 54f
7:20  -   -   -  11 13 mph 1014.4mb 53f 55f
6:50 3.5ft 9s 8s 16 18 mph 1014.3mb 53f 55f
6:20  -   -   -  13 16 mph 1014.2mb 53f 54f
5:50 3.5ft 9s 8s 13 16 mph 1014.2mb 53f 54f
5:20  -   -   -  11 13 mph 1014.5mb 53f 54f
4:50 3.5ft 9s 8s 13 16 mph 1014.5mb 53f 55f
4:20  -   -   -  13 16 mph 1014.9mb 53f 55f
3:50 4ft 8s 8s 11 13 mph 1014.7mb 53f 54f
3:20  -   -   -  11 13 mph 1014.9mb 54f 54f
2:50 4ft 10s 8s 13 16 mph 1014.8mb 53f 54f
2:20  -   -   -  11 13 mph 1015.1mb 53f 54f
1:50 4.5ft 8s 8s 11 13 mph 1015.4mb 53f 54f
1:20  -   -   -  9 11 mph 1015.6mb 53f 54f
12:50 3.5ft 8s 7s 2
mph
1016.1mb 53f 54f
12:20  -   -   -  4 7 mph 1016mb 53f 55f
Di 07/22 11:50 3.5ft 8s 7s 2 4 mph 1016.2mb 53f 55f
11:20  -   -   -   -  2 mph 1016.1mb 53f 56f
10:50 4ft 8s 7s 2
mph
1016.3mb 53f 56f
10:20  -   -   -  2 4 mph 1016.4mb 54f 56f
9:50 4ft 8s 7s 4
mph
1016.5mb 54f 56f
9:20  -   -   -  4
mph
1016.7mb 54f 56f
8:50 4ft 8s 7s 4
mph
1016.6mb 54f 56f
8:20  -   -   -  4 7 mph 1016.9mb 53f 56f
7:50 3.5ft 9s 7s 2 4 mph 1017mb 54f 56f
7:20  -   -   -  2 4 mph 1017mb 55f 56f
6:50 3.5ft 9s 7s 7 9 mph 1017.1mb 55f 57f
6:20  -   -   -  4
mph
1017.4mb 55f 57f
5:50 3.5ft 8s 7s 4 7 mph 1017.4mb 55f 58f
5:20  -   -   -  4
mph
1017.5mb 55f 57f
4:50 3.5ft 9s 8s 4
mph
1017.8mb 55f 57f
4:20  -   -   -  4 7 mph 1018.1mb 56f 57f
3:50 3.5ft 9s 7s 4 7 mph 1018.3mb 56f 57f
3:20  -   -   -  4 7 mph 1018.5mb 56f 57f
2:50 3.5ft 10s 7s 4 7 mph 1018.6mb 55f 57f
2:20  -   -   -  4 7 mph 1018.5mb 55f 56f
1:50 3ft 11s 7s 7
mph
1018.4mb 55f 56f
1:20  -   -   -  4 7 mph 1018.4mb 55f 56f
12:50 3ft 10s 7s 4
mph
1018.2mb 55f 56f
12:20  -   -   -  4
mph
1018.2mb 54f 56f
11:50 3ft 9s 7s  -  2 mph 1018.2mb 53f 56f
11:20  -   -   -   -  2 mph 1018.2mb 54f 55f
10:50 3.5ft 10s 7s 2
mph
1018.1mb 54f 54f
10:20  -   -   -  2
mph
1017.8mb 53f 54f
9:50 3.5ft 10s 7s 4
mph
1017.8mb 53f 53f
9:20  -   -   -  4
mph
1017.7mb 52f 53f
8:50 3.5ft 8s 7s 4 7 mph 1017.7mb 52f 53f
8:20  -   -   -  7 9 mph 1017.5mb 52f 52f
7:50 3.5ft 8s 8s 9
mph
1017.3mb 52f 52f
7:20  -   -   -  7 9 mph 1017.1mb 52f 52f
6:50 3.5ft 9s 8s 9
mph
1016.8mb 52f 52f
6:20  -   -   -  7 9 mph 1016.6mb 52f 52f
5:50 3.5ft 11s 8s 4 7 mph 1016.6mb 52f 52f
5:20  -   -   -  2 4 mph 1016.8mb 52f 53f
4:50 3.5ft 8s 8s 2 4 mph 1016.9mb 52f 53f
4:20  -   -   -  4
mph
1016.9mb 52f 52f
3:50 4ft 11s 8s 2 4 mph 1016.9mb 52f 53f
3:20  -   -   -  2 4 mph 1016.8mb 52f 54f
2:50 3.5ft 10s 8s 4
mph
1016.8mb 52f 53f
2:20  -   -   -  4 7 mph 1016.9mb 53f 54f
1:50 4ft 9s 8s 4 7 mph 1016.7mb 53f 54f
1:20  -   -   -  7
mph
1016.9mb 53f 54f
12:50 4ft 10s 7s 4
mph
1016.7mb 53f 54f
12:20  -   -   -  4
mph
1016.6mb 53f 54f
Mo 07/21 11:50 3.5ft 9s 7s 4
mph
1016.5mb 53f 54f
11:20  -   -   -  2
mph
1016.3mb 54f 53f
10:50 3.5ft 10s 7s  -  2 mph 1016.4mb 54f 53f
10:20  -   -   -   -  2 mph 1016.5mb 54f 53f
9:50 3.5ft 12s 7s 4
mph
1016.4mb 54f 54f
9:20  -   -   -  7 9 mph 1016.4mb 53f 54f
8:50 4.5ft 9s 7s 7
mph
1016.3mb 54f 54f
8:20  -   -   -  7
mph
1016.4mb 54f 55f
7:50 4.5ft 10s 7s 4
mph
1016.5mb 54f 55f
7:20  -   -   -  4 7 mph 1016.6mb 55f 55f
6:50 4.5ft 10s 7s 2 4 mph 1016.6mb 55f 56f
6:20  -   -   -  2 4 mph 1016.7mb 55f 56f
5:50 4.5ft 10s 7s 4
mph
1017mb 55f 56f
5:20  -   -   -  4
mph
1017.1mb 55f 56f
4:50 5ft 10s 7s 4
mph
1017.1mb 55f 56f
4:20  -   -   -  4 7 mph 1017.3mb 55f 56f
3:50 5ft 9s 7s 4 7 mph 1017.6mb 55f 55f
2:50 5ft 10s 7s 7
mph
1017.9mb 55f 55f
2:20  -   -   -  7 9 mph 1017.8mb 55f 55f
1:50 5ft 11s 7s 7
mph
1017.8mb 55f 55f
1:20  -   -   -  7
mph
1017.7mb 55f 55f
12:50 5ft 9s 7s 4 7 mph 1017.8mb 54f 55f
12:20  -   -   -  4 7 mph 1017.8mb 54f 55f
11:50 5ft 10s 7s 2 4 mph 1017.8mb 53f 55f
11:20  -   -   -   -  2 mph 1017.8mb 53f 55f
10:50 5ft 10s 7s  -  2 mph 1017.8mb 53f 54f
10:20  -   -   -   -  2 mph 1017.8mb 52f 53f
9:50 6ft 10s 7s 2
mph
1017.7mb 52f 53f
9:20  -   -   -  4 7 mph 1017.7mb 52f 52f
8:50 5.5ft 10s 7s 4 7 mph 1017.7mb 52f 52f
8:20  -   -   -  4 7 mph 1017.6mb 52f 52f
7:50 5.5ft 11s 7s 2 4 mph 1017.3mb 52f 51f
7:20  -   -   -  2 4 mph 1017.1mb 51f 51f
6:50 6ft 10s 8s 2 4 mph 1016.9mb 51f 51f
6:20  -   -   -  4 7 mph 1016.7mb 51f 51f
5:50 5.5ft 10s 8s 4 7 mph 1016.6mb 51f 51f
5:20  -   -   -  4 7 mph 1016.5mb 52f 51f
4:50 5ft 11s 8s 4 7 mph 1016.5mb 52f 51f
4:20  -   -   -  2 4 mph 1016.4mb 51f 51f
3:50 5ft 8s 8s 2 4 mph 1016.2mb 51f 52f
3:20  -   -   -  2 4 mph 1016mb 51f 53f
2:50 5.5ft 11s 8s 2 4 mph 1016mb 52f 53f
2:20  -   -   -  2 4 mph 1016.1mb 52f 54f